HSKO2: Arkansas River, Haskell, OK

Data processed at Fri Jan 05 2018 23:12


All information presented herein is the property of the government of the United States of America and may be revised or deleted at any time without prior notice.
Dissemination of this information without the expressed written consent of the Public Affairs Office, Tulsa District U.S. Army Corps of Engineers is strictly prohibited.
These data are gathered electronically and, as presented, have not undergone any form of quality control. These data are not guaranteed to be valid or correct.
Go to home page.
Go to station list.

Upstream stations:

Downstream station:
Previous Day
Next Day
Current Day
    
SHEF ID:       HSKO2     Arkansas River near Haskell, OK
STATION TYPE:  

               PRECIP     STAGE  STAGE(2)  RIV-FLOW  BAT-LOAD
                   in        ft        ft       cfs      volt
              Ccp-Rev   Ccp-Rev   Ccp-Rev   Ccp-Rev   Ccp-Rev
(US/Central)
01/03 00:00      0.00      5.44      5.31      6043     12.41
01/03 01:00      0.00      5.45      5.32      6079     12.41
01/03 02:00      0.00      5.41      5.29      5936     12.33
01/03 03:00      0.00      5.35      5.23      5757     12.33
01/03 04:00      0.00      5.27      5.15      5533     12.25
01/03 05:00      0.00      5.18      5.04      5285     12.17
01/03 06:00      0.00      5.11      4.99      5097     12.17
01/03 07:00      0.00      5.08      4.96      5017     12.09
01/03 08:00      0.00      5.09      4.95      5044     12.09
01/03 09:00      0.00      5.13      4.99      5150     12.73
01/03 10:00      0.00      5.17      5.01      5258     13.53
01/03 11:00      0.00      5.23      5.05      5422     13.53
01/03 12:00      0.00      5.26      5.09      5505     13.53
01/03 13:00      0.00      5.35      5.24      5757     13.53
01/03 14:00      0.00      5.34      5.27      5729     13.53
01/03 15:00      0.00      5.35      5.23      5757     13.53
01/03 16:00      0.00      5.32      5.21      5672     13.53
01/03 17:00      0.00      5.28      5.17      5560     13.44
01/03 18:00      0.00      5.15      5.05      5204     13.29
01/03 19:00      0.00      5.00      4.94      4808     12.73
01/03 20:00      0.00      4.84      4.70      4488     12.65
01/03 21:00      0.00      4.67      4.61      4160     12.57
01/03 22:00      0.00      4.50      4.46      3845     12.57
01/03 23:00      0.00      4.34      4.32      3555     12.49